WIF9LT ENVA-ENTO
Flight info
| Callsign | WIF9LT |
|---|---|
| Flight time | 1h 8m |
| Altitude | 23000 |
| Route | UTUNA DCT TUTBI DCT BELGU DCT XUKDI DCT BAMIX |
| Aircraft | DH8D/M-SDE2E3FGRY/H |
Departure
| Time | 2026-05-06 05:31 |
|---|---|
| Airport | Trondheim Airport, Værnes (ENVA) |
Arrival
| Time | 2026-05-06 06:39 |
|---|---|
| Airport | Sandefjord Airport, Torp (ENTO) |
| Time | Latitude | Longitude | Altitude | Speed | Heading |
|---|---|---|---|---|---|
| 2026-05-06 05:10 | 63.45537 | 10.92080 | 1 ft | 0 kts | 179° |
| 2026-05-06 05:25 | 63.45553 | 10.92080 | 1 ft | 2 kts | 179° |
| 2026-05-06 05:25 | 63.45571 | 10.92080 | 1 ft | 4 kts | 176° |
| 2026-05-06 05:25 | 63.45593 | 10.92047 | 1 ft | 2 kts | 122° |
| 2026-05-06 05:25 | 63.45596 | 10.92029 | 1 ft | 0 kts | 92° |
| 2026-05-06 05:27 | 63.45596 | 10.92030 | 1 ft | 2 kts | 92° |
| 2026-05-06 05:27 | 63.45596 | 10.92242 | 3 ft | 24 kts | 89° |
| 2026-05-06 05:27 | 63.45594 | 10.92593 | 6 ft | 22 kts | 90° |
| 2026-05-06 05:27 | 63.45594 | 10.92960 | 10 ft | 23 kts | 89° |
| 2026-05-06 05:28 | 63.45593 | 10.93275 | 15 ft | 17 kts | 90° |
| 2026-05-06 05:28 | 63.45592 | 10.93578 | 24 ft | 17 kts | 91° |
| 2026-05-06 05:28 | 63.45610 | 10.93862 | 35 ft | 14 kts | 56° |
| 2026-05-06 05:28 | 63.45657 | 10.93969 | 40 ft | 3 kts | 44° |
| 2026-05-06 05:29 | 63.45658 | 10.93971 | 40 ft | 0 kts | 44° |
| 2026-05-06 05:29 | 63.45690 | 10.94042 | 43 ft | 15 kts | 45° |
| 2026-05-06 05:29 | 63.45757 | 10.94054 | 44 ft | 12 kts | 288° |
| 2026-05-06 05:30 | 63.45758 | 10.94027 | 43 ft | 0 kts | 267° |
| 2026-05-06 05:30 | 63.45758 | 10.94026 | 43 ft | 1 kts | 267° |
| 2026-05-06 05:30 | 63.45758 | 10.93462 | 25 ft | 75 kts | 270° |
| 2026-05-06 05:30 | 63.45768 | 10.91529 | 43 ft | 159 kts | 272° |
| 2026-05-06 05:31 | 63.45837 | 10.88955 | 720 ft | 182 kts | 274° |
| 2026-05-06 05:31 | 63.45887 | 10.85838 | 1130 ft | 210 kts | 269° |
| 2026-05-06 05:31 | 63.45878 | 10.82526 | 1718 ft | 218 kts | 268° |
| 2026-05-06 05:31 | 63.45870 | 10.79174 | 2369 ft | 218 kts | 268° |
| 2026-05-06 05:32 | 63.45864 | 10.75821 | 3106 ft | 215 kts | 269° |
| 2026-05-06 05:32 | 63.45860 | 10.72512 | 3827 ft | 213 kts | 269° |
| 2026-05-06 05:32 | 63.45857 | 10.69270 | 4520 ft | 211 kts | 269° |
| 2026-05-06 05:32 | 63.45855 | 10.66010 | 5190 ft | 210 kts | 270° |
| 2026-05-06 05:33 | 63.45855 | 10.62818 | 5865 ft | 209 kts | 270° |
| 2026-05-06 05:33 | 63.45853 | 10.59583 | 6558 ft | 208 kts | 271° |
| 2026-05-06 05:33 | 63.45836 | 10.56391 | 7210 ft | 208 kts | 266° |
| 2026-05-06 05:33 | 63.45282 | 10.53484 | 7764 ft | 214 kts | 227° |
| 2026-05-06 05:34 | 63.43921 | 10.52150 | 8327 ft | 223 kts | 189° |
| 2026-05-06 05:34 | 63.42374 | 10.52028 | 9003 ft | 226 kts | 184° |
| 2026-05-06 05:34 | 63.40807 | 10.51999 | 9668 ft | 227 kts | 184° |
| 2026-05-06 05:34 | 63.39223 | 10.52245 | 10303 ft | 232 kts | 166° |
| 2026-05-06 05:35 | 63.37941 | 10.54284 | 10847 ft | 238 kts | 125° |
| 2026-05-06 05:35 | 63.37482 | 10.57792 | 11453 ft | 239 kts | 93° |
| 2026-05-06 05:35 | 63.37455 | 10.61451 | 12124 ft | 241 kts | 90° |
| 2026-05-06 05:35 | 63.37445 | 10.65201 | 12807 ft | 242 kts | 90° |
| 2026-05-06 05:36 | 63.37441 | 10.68903 | 13482 ft | 243 kts | 90° |
| 2026-05-06 05:36 | 63.37437 | 10.72653 | 14119 ft | 244 kts | 90° |
| 2026-05-06 05:36 | 63.37432 | 10.76415 | 14783 ft | 245 kts | 90° |
| 2026-05-06 05:36 | 63.37386 | 10.80203 | 15450 ft | 246 kts | 99° |
| 2026-05-06 05:37 | 63.36675 | 10.83516 | 15980 ft | 244 kts | 139° |
| 2026-05-06 05:37 | 63.35183 | 10.85057 | 16543 ft | 238 kts | 174° |
| 2026-05-06 05:37 | 63.33554 | 10.85429 | 17171 ft | 238 kts | 178° |
| 2026-05-06 05:37 | 63.31916 | 10.85722 | 17806 ft | 239 kts | 178° |
| 2026-05-06 05:38 | 63.30256 | 10.85989 | 18453 ft | 239 kts | 179° |
| 2026-05-06 05:38 | 63.28612 | 10.86234 | 19023 ft | 243 kts | 179° |
| 2026-05-06 05:38 | 63.26924 | 10.86474 | 19568 ft | 247 kts | 179° |
| 2026-05-06 05:38 | 63.25187 | 10.86711 | 20134 ft | 251 kts | 179° |
| 2026-05-06 05:39 | 63.23459 | 10.86940 | 20710 ft | 253 kts | 180° |
| 2026-05-06 05:39 | 63.21688 | 10.87170 | 21313 ft | 256 kts | 180° |
| 2026-05-06 05:39 | 63.19912 | 10.87398 | 21921 ft | 258 kts | 180° |
| 2026-05-06 05:39 | 63.18121 | 10.87624 | 22530 ft | 259 kts | 181° |
| 2026-05-06 05:40 | 63.16279 | 10.87849 | 22839 ft | 274 kts | 180° |
| 2026-05-06 05:40 | 63.14311 | 10.88083 | 22919 ft | 292 kts | 180° |
| 2026-05-06 05:40 | 63.12279 | 10.87971 | 22912 ft | 294 kts | 193° |
| 2026-05-06 05:40 | 63.10282 | 10.86866 | 22917 ft | 299 kts | 199° |
| 2026-05-06 05:41 | 63.08274 | 10.85610 | 22908 ft | 304 kts | 199° |
| 2026-05-06 05:41 | 63.06222 | 10.84327 | 22895 ft | 309 kts | 199° |
| 2026-05-06 05:41 | 63.04156 | 10.83044 | 22892 ft | 313 kts | 199° |
| 2026-05-06 05:41 | 63.02071 | 10.81755 | 22883 ft | 316 kts | 199° |
| 2026-05-06 05:42 | 62.99926 | 10.80436 | 22876 ft | 319 kts | 199° |
| 2026-05-06 05:42 | 62.97811 | 10.79139 | 22866 ft | 321 kts | 199° |
| 2026-05-06 05:42 | 62.95635 | 10.77811 | 22859 ft | 323 kts | 199° |
| 2026-05-06 05:42 | 62.93483 | 10.76500 | 22855 ft | 325 kts | 199° |
| 2026-05-06 05:43 | 62.91296 | 10.75170 | 22853 ft | 326 kts | 198° |
| 2026-05-06 05:43 | 62.89123 | 10.73852 | 22840 ft | 327 kts | 198° |
| 2026-05-06 05:43 | 62.86858 | 10.72481 | 22801 ft | 328 kts | 199° |
| 2026-05-06 05:43 | 62.84732 | 10.71197 | 22794 ft | 328 kts | 199° |
| 2026-05-06 05:44 | 62.82478 | 10.70198 | 22785 ft | 331 kts | 189° |
| 2026-05-06 05:44 | 62.80177 | 10.69976 | 22781 ft | 333 kts | 185° |
| 2026-05-06 05:44 | 62.77862 | 10.69841 | 22789 ft | 333 kts | 185° |
| 2026-05-06 05:44 | 62.75577 | 10.69708 | 22784 ft | 333 kts | 185° |
| 2026-05-06 05:45 | 62.73263 | 10.69569 | 22780 ft | 333 kts | 185° |
| 2026-05-06 05:45 | 62.70971 | 10.69426 | 22787 ft | 332 kts | 186° |
| 2026-05-06 05:45 | 62.68647 | 10.69278 | 22791 ft | 332 kts | 186° |
| 2026-05-06 05:45 | 62.66365 | 10.69129 | 22804 ft | 332 kts | 186° |
| 2026-05-06 05:46 | 62.64066 | 10.68978 | 22808 ft | 332 kts | 186° |
| 2026-05-06 05:46 | 62.61760 | 10.68824 | 22804 ft | 332 kts | 186° |
| 2026-05-06 05:46 | 62.59443 | 10.68669 | 22811 ft | 332 kts | 186° |
| 2026-05-06 05:46 | 62.57153 | 10.68515 | 22818 ft | 332 kts | 186° |
| 2026-05-06 05:47 | 62.54836 | 10.68360 | 22819 ft | 332 kts | 186° |
| 2026-05-06 05:47 | 62.52559 | 10.68206 | 22823 ft | 332 kts | 186° |
| 2026-05-06 05:47 | 62.50252 | 10.68051 | 22825 ft | 331 kts | 186° |
| 2026-05-06 05:47 | 62.47959 | 10.67896 | 22833 ft | 331 kts | 187° |
| 2026-05-06 05:48 | 62.45672 | 10.67742 | 22838 ft | 331 kts | 187° |
| 2026-05-06 05:48 | 62.43369 | 10.67587 | 22845 ft | 331 kts | 187° |
| 2026-05-06 05:48 | 62.41086 | 10.67433 | 22846 ft | 331 kts | 187° |
| 2026-05-06 05:48 | 62.38762 | 10.67277 | 22846 ft | 331 kts | 187° |
| 2026-05-06 05:49 | 62.36489 | 10.67123 | 22842 ft | 332 kts | 187° |
| 2026-05-06 05:49 | 62.34156 | 10.66967 | 22846 ft | 331 kts | 187° |
| 2026-05-06 05:49 | 62.31884 | 10.66816 | 22856 ft | 331 kts | 187° |
| 2026-05-06 05:49 | 62.29568 | 10.66661 | 22854 ft | 331 kts | 187° |
| 2026-05-06 05:50 | 62.27281 | 10.66509 | 22853 ft | 330 kts | 187° |
| 2026-05-06 05:50 | 62.25015 | 10.66358 | 22862 ft | 330 kts | 187° |
| 2026-05-06 05:50 | 62.22722 | 10.66205 | 22864 ft | 330 kts | 187° |
| 2026-05-06 05:50 | 62.20416 | 10.66052 | 22864 ft | 330 kts | 187° |
| 2026-05-06 05:51 | 62.18158 | 10.65902 | 22859 ft | 330 kts | 187° |
| 2026-05-06 05:51 | 62.15844 | 10.65748 | 22852 ft | 330 kts | 187° |
| 2026-05-06 05:51 | 62.13565 | 10.65597 | 22847 ft | 330 kts | 187° |
| 2026-05-06 05:51 | 62.11264 | 10.65445 | 22842 ft | 329 kts | 187° |
| 2026-05-06 05:52 | 62.08994 | 10.65296 | 22843 ft | 329 kts | 188° |
| 2026-05-06 05:52 | 62.06698 | 10.65144 | 22841 ft | 329 kts | 188° |
| 2026-05-06 05:52 | 62.04412 | 10.64994 | 22847 ft | 329 kts | 188° |
| 2026-05-06 05:52 | 62.02142 | 10.64844 | 22837 ft | 329 kts | 188° |
| 2026-05-06 05:53 | 61.99857 | 10.64694 | 22828 ft | 329 kts | 188° |
| 2026-05-06 05:53 | 61.97576 | 10.64545 | 22830 ft | 329 kts | 188° |
| 2026-05-06 05:53 | 61.95281 | 10.64395 | 22821 ft | 329 kts | 188° |
| 2026-05-06 05:53 | 61.92991 | 10.64246 | 22835 ft | 328 kts | 188° |
| 2026-05-06 05:54 | 61.90710 | 10.64098 | 22835 ft | 327 kts | 188° |
| 2026-05-06 05:54 | 61.88457 | 10.63951 | 22848 ft | 327 kts | 188° |
| 2026-05-06 05:54 | 61.86175 | 10.63803 | 22848 ft | 327 kts | 189° |
| 2026-05-06 05:54 | 61.83908 | 10.63655 | 22860 ft | 327 kts | 189° |
| 2026-05-06 05:55 | 61.81663 | 10.63510 | 22860 ft | 327 kts | 189° |
| 2026-05-06 05:55 | 61.79395 | 10.63363 | 22861 ft | 326 kts | 189° |
| 2026-05-06 05:55 | 61.77135 | 10.63217 | 22872 ft | 326 kts | 189° |
| 2026-05-06 05:55 | 61.74860 | 10.63070 | 22879 ft | 326 kts | 189° |
| 2026-05-06 05:56 | 61.72625 | 10.62926 | 22880 ft | 325 kts | 189° |
| 2026-05-06 05:56 | 61.70363 | 10.62780 | 22891 ft | 326 kts | 189° |
| 2026-05-06 05:56 | 61.68089 | 10.62633 | 22864 ft | 327 kts | 189° |
| 2026-05-06 05:56 | 61.65815 | 10.62487 | 22850 ft | 326 kts | 190° |
| 2026-05-06 05:57 | 61.63582 | 10.62344 | 22864 ft | 326 kts | 190° |
| 2026-05-06 05:57 | 61.61293 | 10.62198 | 22853 ft | 325 kts | 190° |
| 2026-05-06 05:57 | 61.59022 | 10.62053 | 22834 ft | 325 kts | 190° |
| 2026-05-06 05:57 | 61.56792 | 10.61912 | 22840 ft | 324 kts | 191° |
| 2026-05-06 05:58 | 61.54519 | 10.61767 | 22841 ft | 325 kts | 190° |
| 2026-05-06 05:58 | 61.52262 | 10.61622 | 22824 ft | 325 kts | 191° |
| 2026-05-06 05:58 | 61.50028 | 10.61480 | 22815 ft | 325 kts | 191° |
| 2026-05-06 05:58 | 61.47762 | 10.61337 | 22826 ft | 324 kts | 191° |
| 2026-05-06 05:59 | 61.45509 | 10.61194 | 22812 ft | 325 kts | 191° |
| 2026-05-06 05:59 | 61.43245 | 10.61051 | 22811 ft | 324 kts | 192° |
| 2026-05-06 05:59 | 61.41028 | 10.60912 | 22829 ft | 323 kts | 192° |
| 2026-05-06 05:59 | 61.38766 | 10.60770 | 22827 ft | 323 kts | 192° |
| 2026-05-06 06:00 | 61.36512 | 10.60628 | 22830 ft | 323 kts | 192° |
| 2026-05-06 06:00 | 61.34297 | 10.60488 | 22831 ft | 323 kts | 192° |
| 2026-05-06 06:00 | 61.32050 | 10.60346 | 22842 ft | 323 kts | 192° |
| 2026-05-06 06:00 | 61.29790 | 10.60204 | 22831 ft | 323 kts | 192° |
| 2026-05-06 06:01 | 61.27548 | 10.60063 | 22832 ft | 323 kts | 192° |
| 2026-05-06 06:01 | 61.25315 | 10.59924 | 22835 ft | 323 kts | 192° |
| 2026-05-06 06:01 | 61.23062 | 10.59783 | 22819 ft | 323 kts | 192° |
| 2026-05-06 06:01 | 61.20845 | 10.59776 | 22829 ft | 328 kts | 187° |
| 2026-05-06 06:02 | 61.18543 | 10.60340 | 22845 ft | 331 kts | 183° |
| 2026-05-06 06:02 | 61.16290 | 10.60999 | 22861 ft | 331 kts | 184° |
| 2026-05-06 06:02 | 61.14021 | 10.61662 | 22877 ft | 331 kts | 183° |
| 2026-05-06 06:02 | 61.11759 | 10.62319 | 22901 ft | 330 kts | 184° |
| 2026-05-06 06:03 | 61.09479 | 10.62975 | 22887 ft | 330 kts | 184° |
| 2026-05-06 06:03 | 61.07208 | 10.63626 | 22911 ft | 330 kts | 184° |
| 2026-05-06 06:03 | 61.04954 | 10.64267 | 22910 ft | 330 kts | 184° |
| 2026-05-06 06:03 | 61.04284 | 10.64457 | 22919 ft | 329 kts | 184° |
| 2026-05-06 06:04 | 61.03706 | 10.64622 | 22908 ft | 330 kts | 185° |
| 2026-05-06 06:04 | 61.02187 | 10.65052 | 22918 ft | 329 kts | 185° |
| 2026-05-06 06:04 | 60.99168 | 10.65904 | 22945 ft | 329 kts | 184° |
| 2026-05-06 06:04 | 60.96917 | 10.66536 | 22954 ft | 330 kts | 185° |
| 2026-05-06 06:05 | 60.94637 | 10.67175 | 22931 ft | 330 kts | 185° |
| 2026-05-06 06:05 | 60.92355 | 10.67814 | 22919 ft | 331 kts | 185° |
| 2026-05-06 06:05 | 60.90080 | 10.68451 | 22924 ft | 331 kts | 185° |
| 2026-05-06 06:05 | 60.87828 | 10.69079 | 22952 ft | 330 kts | 184° |
| 2026-05-06 06:06 | 60.85541 | 10.69716 | 22932 ft | 331 kts | 184° |
| 2026-05-06 06:06 | 60.83261 | 10.70351 | 22917 ft | 331 kts | 185° |
| 2026-05-06 06:06 | 60.81002 | 10.70979 | 22924 ft | 331 kts | 185° |
| 2026-05-06 06:06 | 60.78712 | 10.71614 | 22930 ft | 332 kts | 185° |
| 2026-05-06 06:07 | 60.76429 | 10.72246 | 22938 ft | 331 kts | 185° |
| 2026-05-06 06:07 | 60.74181 | 10.72868 | 22943 ft | 331 kts | 185° |
| 2026-05-06 06:07 | 60.71890 | 10.73500 | 22949 ft | 332 kts | 184° |
| 2026-05-06 06:07 | 60.69604 | 10.74129 | 22938 ft | 333 kts | 184° |
| 2026-05-06 06:08 | 60.67302 | 10.74762 | 22925 ft | 333 kts | 184° |
| 2026-05-06 06:08 | 60.65024 | 10.75389 | 22923 ft | 333 kts | 184° |
| 2026-05-06 06:08 | 60.62744 | 10.76015 | 22920 ft | 333 kts | 184° |
| 2026-05-06 06:08 | 60.60454 | 10.76643 | 22918 ft | 333 kts | 184° |
| 2026-05-06 06:09 | 60.58157 | 10.77272 | 22909 ft | 333 kts | 184° |
| 2026-05-06 06:09 | 60.55861 | 10.77900 | 22910 ft | 333 kts | 184° |
| 2026-05-06 06:09 | 60.53592 | 10.78519 | 22902 ft | 333 kts | 184° |
| 2026-05-06 06:09 | 60.51278 | 10.79150 | 22906 ft | 334 kts | 184° |
| 2026-05-06 06:10 | 60.48988 | 10.79773 | 22884 ft | 334 kts | 184° |
| 2026-05-06 06:10 | 60.46677 | 10.80401 | 22886 ft | 334 kts | 184° |
| 2026-05-06 06:10 | 60.44394 | 10.81021 | 22891 ft | 334 kts | 184° |
| 2026-05-06 06:10 | 60.42100 | 10.81643 | 22906 ft | 334 kts | 184° |
| 2026-05-06 06:11 | 60.39803 | 10.82264 | 22916 ft | 334 kts | 184° |
| 2026-05-06 06:11 | 60.37502 | 10.82886 | 22914 ft | 334 kts | 184° |
| 2026-05-06 06:11 | 60.35244 | 10.83149 | 22905 ft | 320 kts | 194° |
| 2026-05-06 06:11 | 60.33038 | 10.82682 | 22915 ft | 316 kts | 198° |
| 2026-05-06 06:12 | 60.30865 | 10.82138 | 22713 ft | 322 kts | 198° |
| 2026-05-06 06:12 | 60.28618 | 10.81566 | 22364 ft | 332 kts | 198° |
| 2026-05-06 06:12 | 60.26301 | 10.80985 | 21948 ft | 342 kts | 197° |
| 2026-05-06 06:12 | 60.23970 | 10.80424 | 21490 ft | 338 kts | 197° |
| 2026-05-06 06:13 | 60.21659 | 10.79894 | 21047 ft | 330 kts | 197° |
| 2026-05-06 06:13 | 60.19413 | 10.79377 | 20641 ft | 323 kts | 197° |
| 2026-05-06 06:13 | 60.17221 | 10.78867 | 20239 ft | 318 kts | 197° |
| 2026-05-06 06:13 | 60.15038 | 10.78357 | 19828 ft | 314 kts | 197° |
| 2026-05-06 06:14 | 60.12902 | 10.77856 | 19420 ft | 311 kts | 197° |
| 2026-05-06 06:14 | 60.10755 | 10.77353 | 19022 ft | 307 kts | 197° |
| 2026-05-06 06:14 | 60.08674 | 10.76864 | 18639 ft | 304 kts | 197° |
| 2026-05-06 06:14 | 60.06590 | 10.76375 | 18252 ft | 302 kts | 196° |
| 2026-05-06 06:15 | 60.04499 | 10.75885 | 17862 ft | 300 kts | 196° |
| 2026-05-06 06:15 | 60.02440 | 10.75402 | 17476 ft | 298 kts | 195° |
| 2026-05-06 06:15 | 60.00408 | 10.74926 | 17097 ft | 296 kts | 195° |
| 2026-05-06 06:15 | 59.98376 | 10.74452 | 16722 ft | 294 kts | 195° |
| 2026-05-06 06:16 | 59.96359 | 10.73981 | 16352 ft | 293 kts | 195° |
| 2026-05-06 06:16 | 59.94338 | 10.73509 | 15962 ft | 292 kts | 194° |
| 2026-05-06 06:16 | 59.92332 | 10.73042 | 15582 ft | 291 kts | 194° |
| 2026-05-06 06:16 | 59.90353 | 10.72582 | 15220 ft | 290 kts | 193° |
| 2026-05-06 06:17 | 59.88348 | 10.72116 | 14848 ft | 289 kts | 193° |
| 2026-05-06 06:17 | 59.86372 | 10.71658 | 14467 ft | 288 kts | 193° |
| 2026-05-06 06:17 | 59.84385 | 10.71198 | 14096 ft | 287 kts | 192° |
| 2026-05-06 06:17 | 59.82424 | 10.70745 | 13731 ft | 286 kts | 192° |
| 2026-05-06 06:18 | 59.80454 | 10.70291 | 13355 ft | 285 kts | 192° |
| 2026-05-06 06:18 | 59.78512 | 10.69810 | 12978 ft | 282 kts | 195° |
| 2026-05-06 06:18 | 59.76719 | 10.68527 | 12646 ft | 273 kts | 211° |
| 2026-05-06 06:18 | 59.75038 | 10.66726 | 12278 ft | 272 kts | 212° |
| 2026-05-06 06:19 | 59.73402 | 10.64951 | 11925 ft | 271 kts | 212° |
| 2026-05-06 06:19 | 59.71754 | 10.63163 | 11575 ft | 270 kts | 212° |
| 2026-05-06 06:19 | 59.70100 | 10.61376 | 11223 ft | 270 kts | 212° |
| 2026-05-06 06:19 | 59.68473 | 10.59625 | 10879 ft | 270 kts | 212° |
| 2026-05-06 06:20 | 59.66815 | 10.57845 | 10531 ft | 270 kts | 211° |
| 2026-05-06 06:20 | 59.65173 | 10.56088 | 10185 ft | 269 kts | 211° |
| 2026-05-06 06:20 | 59.63483 | 10.54556 | 9907 ft | 268 kts | 200° |
| 2026-05-06 06:20 | 59.61677 | 10.53749 | 9709 ft | 265 kts | 194° |
| 2026-05-06 06:21 | 59.59882 | 10.53062 | 9511 ft | 260 kts | 194° |
| 2026-05-06 06:21 | 59.58125 | 10.52392 | 9328 ft | 256 kts | 194° |
| 2026-05-06 06:21 | 59.56392 | 10.51729 | 9139 ft | 252 kts | 193° |
| 2026-05-06 06:21 | 59.54691 | 10.51074 | 8962 ft | 249 kts | 193° |
| 2026-05-06 06:22 | 59.53009 | 10.50424 | 8791 ft | 245 kts | 193° |
| 2026-05-06 06:22 | 59.51349 | 10.49781 | 8633 ft | 243 kts | 194° |
| 2026-05-06 06:22 | 59.49699 | 10.49140 | 8457 ft | 240 kts | 193° |
| 2026-05-06 06:22 | 59.48078 | 10.48510 | 8281 ft | 238 kts | 193° |
| 2026-05-06 06:23 | 59.46478 | 10.47887 | 8126 ft | 235 kts | 193° |
| 2026-05-06 06:23 | 59.44870 | 10.47262 | 7953 ft | 233 kts | 193° |
| 2026-05-06 06:23 | 59.43307 | 10.46654 | 7791 ft | 231 kts | 193° |
| 2026-05-06 06:23 | 59.41736 | 10.46044 | 7632 ft | 228 kts | 193° |
| 2026-05-06 06:24 | 59.40178 | 10.45628 | 7470 ft | 227 kts | 184° |
| 2026-05-06 06:24 | 59.38609 | 10.45647 | 7306 ft | 225 kts | 180° |
| 2026-05-06 06:24 | 59.37059 | 10.45713 | 7151 ft | 223 kts | 180° |
| 2026-05-06 06:24 | 59.35509 | 10.45779 | 6992 ft | 220 kts | 180° |
| 2026-05-06 06:25 | 59.33996 | 10.45840 | 6837 ft | 218 kts | 180° |
| 2026-05-06 06:25 | 59.32480 | 10.45898 | 6684 ft | 216 kts | 180° |
| 2026-05-06 06:25 | 59.29518 | 10.46004 | 6381 ft | 211 kts | 180° |
| 2026-05-06 06:26 | 59.28052 | 10.46055 | 6232 ft | 209 kts | 180° |
| 2026-05-06 06:26 | 59.26612 | 10.46103 | 6086 ft | 207 kts | 180° |
| 2026-05-06 06:26 | 59.25173 | 10.46151 | 5939 ft | 205 kts | 180° |
| 2026-05-06 06:26 | 59.23756 | 10.46198 | 5794 ft | 203 kts | 180° |
| 2026-05-06 06:27 | 59.22360 | 10.46243 | 5653 ft | 200 kts | 180° |
| 2026-05-06 06:27 | 59.20972 | 10.46288 | 5511 ft | 198 kts | 180° |
| 2026-05-06 06:27 | 59.19591 | 10.46332 | 5370 ft | 196 kts | 180° |
| 2026-05-06 06:27 | 59.18252 | 10.46375 | 5232 ft | 194 kts | 179° |
| 2026-05-06 06:28 | 59.16907 | 10.46396 | 5091 ft | 191 kts | 180° |
| 2026-05-06 06:28 | 59.15572 | 10.46395 | 4954 ft | 189 kts | 180° |
| 2026-05-06 06:28 | 59.14276 | 10.46395 | 4823 ft | 187 kts | 180° |
| 2026-05-06 06:28 | 59.12994 | 10.46395 | 4694 ft | 184 kts | 180° |
| 2026-05-06 06:29 | 59.11716 | 10.46396 | 4563 ft | 181 kts | 180° |
| 2026-05-06 06:29 | 59.10474 | 10.46397 | 4438 ft | 178 kts | 179° |
| 2026-05-06 06:29 | 59.09247 | 10.46399 | 4311 ft | 175 kts | 179° |
| 2026-05-06 06:29 | 59.08028 | 10.46401 | 4185 ft | 172 kts | 179° |
| 2026-05-06 06:30 | 59.06845 | 10.46403 | 4061 ft | 168 kts | 179° |
| 2026-05-06 06:30 | 59.05702 | 10.46406 | 3942 ft | 164 kts | 179° |
| 2026-05-06 06:30 | 59.04563 | 10.46407 | 3824 ft | 160 kts | 179° |
| 2026-05-06 06:30 | 59.03474 | 10.46408 | 3710 ft | 155 kts | 179° |
| 2026-05-06 06:31 | 59.02416 | 10.46408 | 3613 ft | 154 kts | 179° |
| 2026-05-06 06:31 | 59.01325 | 10.46395 | 3517 ft | 160 kts | 180° |
| 2026-05-06 06:31 | 59.00202 | 10.46326 | 3461 ft | 164 kts | 179° |
| 2026-05-06 06:31 | 58.99037 | 10.46326 | 3315 ft | 169 kts | 178° |
| 2026-05-06 06:32 | 58.97844 | 10.46353 | 3173 ft | 170 kts | 178° |
| 2026-05-06 06:32 | 58.96690 | 10.46103 | 3049 ft | 170 kts | 206° |
| 2026-05-06 06:32 | 58.96010 | 10.44392 | 2979 ft | 160 kts | 262° |
| 2026-05-06 06:32 | 58.95927 | 10.42240 | 2980 ft | 163 kts | 268° |
| 2026-05-06 06:33 | 58.95881 | 10.40031 | 2977 ft | 168 kts | 268° |
| 2026-05-06 06:33 | 58.95843 | 10.37681 | 2984 ft | 180 kts | 269° |
| 2026-05-06 06:33 | 58.95813 | 10.35161 | 2984 ft | 195 kts | 269° |
| 2026-05-06 06:33 | 58.95786 | 10.32450 | 2984 ft | 210 kts | 268° |
| 2026-05-06 06:34 | 58.95821 | 10.29564 | 2964 ft | 218 kts | 281° |
| 2026-05-06 06:34 | 58.96591 | 10.27115 | 2958 ft | 217 kts | 325° |
| 2026-05-06 06:34 | 58.97989 | 10.26359 | 2946 ft | 208 kts | 5° |
| 2026-05-06 06:34 | 58.99416 | 10.26525 | 2966 ft | 204 kts | 0° |
| 2026-05-06 06:35 | 59.00811 | 10.26363 | 2953 ft | 199 kts | 358° |
| 2026-05-06 06:35 | 59.02176 | 10.26277 | 2911 ft | 195 kts | 1° |
| 2026-05-06 06:35 | 59.03523 | 10.26245 | 2847 ft | 193 kts | 0° |
| 2026-05-06 06:35 | 59.04855 | 10.26204 | 2772 ft | 191 kts | 0° |
| 2026-05-06 06:36 | 59.06185 | 10.26170 | 2620 ft | 194 kts | 1° |
| 2026-05-06 06:36 | 59.07549 | 10.26140 | 2355 ft | 202 kts | 0° |
| 2026-05-06 06:36 | 59.08988 | 10.26108 | 2070 ft | 211 kts | 0° |
| 2026-05-06 06:36 | 59.10445 | 10.26066 | 1756 ft | 208 kts | 0° |
| 2026-05-06 06:37 | 59.11853 | 10.26016 | 1493 ft | 198 kts | 0° |
| 2026-05-06 06:37 | 59.13176 | 10.25984 | 1216 ft | 181 kts | 0° |
| 2026-05-06 06:37 | 59.14369 | 10.25957 | 993 ft | 162 kts | 0° |
| 2026-05-06 06:37 | 59.15452 | 10.25934 | 742 ft | 147 kts | 360° |
| 2026-05-06 06:38 | 59.16412 | 10.25921 | 520 ft | 132 kts | 0° |
| 2026-05-06 06:38 | 59.17306 | 10.25900 | 341 ft | 130 kts | 0° |
| 2026-05-06 06:38 | 59.18198 | 10.25872 | 277 ft | 106 kts | 359° |
| 2026-05-06 06:38 | 59.18762 | 10.25857 | 293 ft | 63 kts | 359° |
| 2026-05-06 06:39 | 59.19007 | 10.25853 | 298 ft | 17 kts | 359° |
| 2026-05-06 06:39 | 59.19057 | 10.25930 | 297 ft | 7 kts | 91° |
| 2026-05-06 06:39 | 59.19057 | 10.26047 | 295 ft | 9 kts | 89° |
| 2026-05-06 06:39 | 59.19058 | 10.26179 | 292 ft | 10 kts | 97° |
| 2026-05-06 06:40 | 59.19007 | 10.26228 | 290 ft | 9 kts | 179° |
| 2026-05-06 06:40 | 59.18885 | 10.26232 | 286 ft | 30 kts | 180° |
| 2026-05-06 06:40 | 59.18675 | 10.26237 | 280 ft | 23 kts | 180° |
| 2026-05-06 06:40 | 59.18519 | 10.26241 | 275 ft | 21 kts | 179° |
| 2026-05-06 06:41 | 59.18384 | 10.26243 | 271 ft | 17 kts | 179° |
| 2026-05-06 06:41 | 59.18284 | 10.26223 | 270 ft | 12 kts | 220° |
| 2026-05-06 06:41 | 59.18276 | 10.26079 | 272 ft | 8 kts | 269° |
| 2026-05-06 06:41 | 59.18276 | 10.25941 | 276 ft | 11 kts | 269° |
| 2026-05-06 06:42 | 59.18242 | 10.25835 | 279 ft | 7 kts | 226° |
| 2026-05-06 06:42 | 59.18203 | 10.25751 | 282 ft | 9 kts | 228° |
| 2026-05-06 06:42 | 59.18136 | 10.25612 | 288 ft | 10 kts | 228° |
| 2026-05-06 06:42 | 59.18098 | 10.25546 | 292 ft | 5 kts | 200° |
| 2026-05-06 06:43 | 59.18060 | 10.25522 | 292 ft | 5 kts | 218° |
| 2026-05-06 06:43 | 59.18039 | 10.25482 | 293 ft | 2 kts | 225° |
| 2026-05-06 06:43 | 59.18019 | 10.25442 | 295 ft | 3 kts | 224° |
| 2026-05-06 06:43 | 59.18004 | 10.25415 | 297 ft | 2 kts | 225° |
| 2026-05-06 06:44 | 59.18001 | 10.25409 | 297 ft | 0 kts | 225° |